Terminal Aerodrome Forecast
Issued by NWS Paducah, KY

Home | Current Version | Previous Version | Text Only | Print | Product List | Glossary On
Versions: 1 2 3 4 5 6 7 8 9 10 11 12 13 14 15 16 17 18 19
000
FTUS43 KPAH 291738
TAFEVV
TAF
KEVV 291738Z 2918/3018 11010KT P6SM SCT030 BKN250
     FM292300 12008KT P6SM BKN050
     FM301000 17009KT 4SM -TSRA BR BKN025CB
     FM301600 19013G21KT P6SM SCT030 BKN250=

USA.gov is the U.S. government's official web portal to all federal, state and local government web resources and services.